sensor_id;sensor_type;location;lat;lon;timestamp;P1;durP1;ratioP1;P2;durP2;ratioP2
37203;SDS011;23098;48.054;10.636;2023-08-17T00:01:59;10.60;;;9.50;;
37203;SDS011;23098;48.054;10.636;2023-08-17T00:04:25;13.90;;;9.25;;
37203;SDS011;23098;48.054;10.636;2023-08-17T00:06:50;10.55;;;8.77;;
37203;SDS011;23098;48.054;10.636;2023-08-17T00:09:16;10.55;;;9.45;;
37203;SDS011;23098;48.054;10.636;2023-08-17T00:11:42;11.45;;;9.45;;
37203;SDS011;23098;48.054;10.636;2023-08-17T00:14:07;10.45;;;9.35;;
37203;SDS011;23098;48.054;10.636;2023-08-17T00:16:33;11.57;;;9.60;;
37203;SDS011;23098;48.054;10.636;2023-08-17T00:18:58;10.55;;;9.50;;
37203;SDS011;23098;48.054;10.636;2023-08-17T00:21:24;12.18;;;9.60;;
37203;SDS011;23098;48.054;10.636;2023-08-17T00:23:49;12.05;;;9.25;;
37203;SDS011;23098;48.054;10.636;2023-08-17T00:26:15;10.27;;;9.25;;
37203;SDS011;23098;48.054;10.636;2023-08-17T00:28:40;12.88;;;9.40;;
37203;SDS011;23098;48.054;10.636;2023-08-17T00:31:06;12.60;;;9.82;;
37203;SDS011;23098;48.054;10.636;2023-08-17T00:33:32;13.27;;;9.13;;
37203;SDS011;23098;48.054;10.636;2023-08-17T00:35:57;12.70;;;8.60;;
37203;SDS011;23098;48.054;10.636;2023-08-17T00:38:23;10.63;;;9.27;;
37203;SDS011;23098;48.054;10.636;2023-08-17T00:40:49;11.85;;;9.10;;
37203;SDS011;23098;48.054;10.636;2023-08-17T00:43:14;11.98;;;9.40;;
37203;SDS011;23098;48.054;10.636;2023-08-17T00:45:40;10.73;;;9.30;;
37203;SDS011;23098;48.054;10.636;2023-08-17T00:48:06;12.20;;;9.43;;
37203;SDS011;23098;48.054;10.636;2023-08-17T00:50:34;10.88;;;9.32;;
37203;SDS011;23098;48.054;10.636;2023-08-17T00:53:00;13.25;;;8.98;;
37203;SDS011;23098;48.054;10.636;2023-08-17T00:55:26;10.55;;;9.07;;
37203;SDS011;23098;48.054;10.636;2023-08-17T00:57:53;15.52;;;9.68;;
37203;SDS011;23098;48.054;10.636;2023-08-17T01:00:20;12.45;;;9.73;;
37203;SDS011;23098;48.054;10.636;2023-08-17T01:02:47;12.73;;;9.68;;
37203;SDS011;23098;48.054;10.636;2023-08-17T01:05:12;11.77;;;9.77;;
37203;SDS011;23098;48.054;10.636;2023-08-17T01:07:38;12.70;;;10.07;;
37203;SDS011;23098;48.054;10.636;2023-08-17T01:10:04;12.23;;;10.60;;
37203;SDS011;23098;48.054;10.636;2023-08-17T01:12:32;12.48;;;10.10;;
37203;SDS011;23098;48.054;10.636;2023-08-17T01:15:05;11.32;;;9.88;;
37203;SDS011;23098;48.054;10.636;2023-08-17T01:17:47;11.63;;;10.18;;
37203;SDS011;23098;48.054;10.636;2023-08-17T01:20:21;14.70;;;10.82;;
37203;SDS011;23098;48.054;10.636;2023-08-17T01:22:48;12.48;;;9.57;;
37203;SDS011;23098;48.054;10.636;2023-08-17T01:25:16;12.55;;;10.50;;
37203;SDS011;23098;48.054;10.636;2023-08-17T01:27:43;13.65;;;11.10;;
37203;SDS011;23098;48.054;10.636;2023-08-17T01:30:10;15.50;;;11.93;;
37203;SDS011;23098;48.054;10.636;2023-08-17T01:32:44;13.10;;;11.60;;
37203;SDS011;23098;48.054;10.636;2023-08-17T01:35:47;14.80;;;11.32;;
37203;SDS011;23098;48.054;10.636;2023-08-17T01:38:20;15.50;;;11.98;;
37203;SDS011;23098;48.054;10.636;2023-08-17T01:40:47;15.15;;;12.18;;
37203;SDS011;23098;48.054;10.636;2023-08-17T01:43:14;13.88;;;11.93;;
37203;SDS011;23098;48.054;10.636;2023-08-17T01:45:41;14.95;;;12.20;;
37203;SDS011;23098;48.054;10.636;2023-08-17T01:48:07;12.68;;;10.88;;
37203;SDS011;23098;48.054;10.636;2023-08-17T01:50:33;13.15;;;11.15;;
37203;SDS011;23098;48.054;10.636;2023-08-17T01:52:58;15.80;;;11.82;;
37203;SDS011;23098;48.054;10.636;2023-08-17T01:55:24;15.30;;;10.85;;
37203;SDS011;23098;48.054;10.636;2023-08-17T01:57:49;14.60;;;12.27;;
37203;SDS011;23098;48.054;10.636;2023-08-17T02:00:15;14.90;;;10.95;;
37203;SDS011;23098;48.054;10.636;2023-08-17T02:02:41;14.02;;;12.07;;
37203;SDS011;23098;48.054;10.636;2023-08-17T02:05:06;16.00;;;12.07;;
37203;SDS011;23098;48.054;10.636;2023-08-17T02:07:33;14.98;;;11.65;;
37203;SDS011;23098;48.054;10.636;2023-08-17T02:09:58;12.85;;;10.68;;
37203;SDS011;23098;48.054;10.636;2023-08-17T02:12:24;14.93;;;12.32;;
37203;SDS011;23098;48.054;10.636;2023-08-17T02:14:49;16.98;;;11.70;;
37203;SDS011;23098;48.054;10.636;2023-08-17T02:17:15;13.75;;;11.48;;
37203;SDS011;23098;48.054;10.636;2023-08-17T02:19:42;14.30;;;11.65;;
37203;SDS011;23098;48.054;10.636;2023-08-17T02:22:08;14.25;;;11.60;;
37203;SDS011;23098;48.054;10.636;2023-08-17T02:24:34;12.50;;;11.07;;
37203;SDS011;23098;48.054;10.636;2023-08-17T02:27:00;13.13;;;11.45;;
37203;SDS011;23098;48.054;10.636;2023-08-17T02:29:25;14.98;;;11.50;;
37203;SDS011;23098;48.054;10.636;2023-08-17T02:31:51;13.68;;;11.05;;
37203;SDS011;23098;48.054;10.636;2023-08-17T02:34:16;13.10;;;10.60;;
37203;SDS011;23098;48.054;10.636;2023-08-17T02:36:42;13.40;;;11.32;;
37203;SDS011;23098;48.054;10.636;2023-08-17T02:39:07;14.25;;;11.60;;
37203;SDS011;23098;48.054;10.636;2023-08-17T02:41:33;12.88;;;11.43;;
37203;SDS011;23098;48.054;10.636;2023-08-17T02:43:58;14.98;;;10.57;;
37203;SDS011;23098;48.054;10.636;2023-08-17T02:46:24;12.77;;;11.23;;
37203;SDS011;23098;48.054;10.636;2023-08-17T02:48:50;13.15;;;11.40;;
37203;SDS011;23098;48.054;10.636;2023-08-17T02:51:16;15.25;;;11.75;;
37203;SDS011;23098;48.054;10.636;2023-08-17T02:53:41;13.43;;;10.38;;
37203;SDS011;23098;48.054;10.636;2023-08-17T02:56:07;13.02;;;10.77;;
37203;SDS011;23098;48.054;10.636;2023-08-17T02:58:36;13.65;;;11.32;;
37203;SDS011;23098;48.054;10.636;2023-08-17T03:01:05;13.68;;;10.40;;
37203;SDS011;23098;48.054;10.636;2023-08-17T03:03:30;12.65;;;10.10;;
37203;SDS011;23098;48.054;10.636;2023-08-17T03:05:56;12.95;;;10.52;;
37203;SDS011;23098;48.054;10.636;2023-08-17T03:08:22;11.65;;;9.93;;
37203;SDS011;23098;48.054;10.636;2023-08-17T03:10:47;13.55;;;10.93;;
37203;SDS011;23098;48.054;10.636;2023-08-17T03:13:13;12.85;;;10.95;;
37203;SDS011;23098;48.054;10.636;2023-08-17T03:15:38;11.98;;;10.63;;
37203;SDS011;23098;48.054;10.636;2023-08-17T03:18:05;12.18;;;10.38;;
37203;SDS011;23098;48.054;10.636;2023-08-17T03:20:30;13.02;;;10.65;;
37203;SDS011;23098;48.054;10.636;2023-08-17T03:22:56;12.00;;;10.43;;
37203;SDS011;23098;48.054;10.636;2023-08-17T03:25:21;12.90;;;10.55;;
37203;SDS011;23098;48.054;10.636;2023-08-17T03:27:47;13.27;;;11.32;;
37203;SDS011;23098;48.054;10.636;2023-08-17T03:30:13;12.20;;;10.75;;
37203;SDS011;23098;48.054;10.636;2023-08-17T03:32:38;13.15;;;11.15;;
37203;SDS011;23098;48.054;10.636;2023-08-17T03:35:04;13.05;;;11.02;;
37203;SDS011;23098;48.054;10.636;2023-08-17T03:37:30;13.05;;;10.68;;
37203;SDS011;23098;48.054;10.636;2023-08-17T03:39:55;13.98;;;11.20;;
37203;SDS011;23098;48.054;10.636;2023-08-17T03:42:21;12.18;;;10.50;;
37203;SDS011;23098;48.054;10.636;2023-08-17T03:44:47;14.35;;;10.88;;
37203;SDS011;23098;48.054;10.636;2023-08-17T03:47:12;16.85;;;11.55;;
37203;SDS011;23098;48.054;10.636;2023-08-17T03:49:39;13.27;;;11.38;;
37203;SDS011;23098;48.054;10.636;2023-08-17T03:52:05;14.70;;;10.80;;
37203;SDS011;23098;48.054;10.636;2023-08-17T03:54:30;12.40;;;11.10;;
37203;SDS011;23098;48.054;10.636;2023-08-17T03:56:56;13.38;;;11.15;;
37203;SDS011;23098;48.054;10.636;2023-08-17T03:59:21;14.05;;;11.18;;
37203;SDS011;23098;48.054;10.636;2023-08-17T04:01:47;14.07;;;10.80;;
37203;SDS011;23098;48.054;10.636;2023-08-17T04:04:12;13.65;;;11.25;;
37203;SDS011;23098;48.054;10.636;2023-08-17T04:06:38;14.80;;;11.10;;
37203;SDS011;23098;48.054;10.636;2023-08-17T04:09:04;14.02;;;10.32;;
37203;SDS011;23098;48.054;10.636;2023-08-17T04:11:30;12.85;;;10.38;;
37203;SDS011;23098;48.054;10.636;2023-08-17T04:13:55;14.63;;;11.30;;
37203;SDS011;23098;48.054;10.636;2023-08-17T04:16:21;12.57;;;10.50;;
37203;SDS011;23098;48.054;10.636;2023-08-17T04:18:46;16.52;;;9.90;;
37203;SDS011;23098;48.054;10.636;2023-08-17T04:21:12;11.63;;;9.90;;
37203;SDS011;23098;48.054;10.636;2023-08-17T04:23:37;14.23;;;10.25;;
37203;SDS011;23098;48.054;10.636;2023-08-17T04:26:03;12.52;;;11.23;;
37203;SDS011;23098;48.054;10.636;2023-08-17T04:28:28;13.52;;;10.80;;
37203;SDS011;23098;48.054;10.636;2023-08-17T04:30:54;12.70;;;10.95;;
37203;SDS011;23098;48.054;10.636;2023-08-17T04:33:19;13.63;;;11.50;;
37203;SDS011;23098;48.054;10.636;2023-08-17T04:35:58;13.65;;;11.63;;
37203;SDS011;23098;48.054;10.636;2023-08-17T04:41:47;15.63;;;11.18;;
37203;SDS011;23098;48.054;10.636;2023-08-17T04:44:13;12.38;;;9.80;;
37203;SDS011;23098;48.054;10.636;2023-08-17T04:46:39;13.90;;;9.73;;
37203;SDS011;23098;48.054;10.636;2023-08-17T04:49:05;11.45;;;10.18;;
37203;SDS011;23098;48.054;10.636;2023-08-17T04:51:30;10.43;;;9.32;;
37203;SDS011;23098;48.054;10.636;2023-08-17T04:53:56;11.38;;;9.57;;
37203;SDS011;23098;48.054;10.636;2023-08-17T04:56:21;10.48;;;9.18;;
37203;SDS011;23098;48.054;10.636;2023-08-17T04:58:52;9.52;;;8.52;;
37203;SDS011;23098;48.054;10.636;2023-08-17T05:01:18;10.20;;;8.15;;
37203;SDS011;23098;48.054;10.636;2023-08-17T05:03:43;10.43;;;8.80;;
37203;SDS011;23098;48.054;10.636;2023-08-17T05:06:09;8.05;;;7.35;;
37203;SDS011;23098;48.054;10.636;2023-08-17T05:08:34;8.90;;;7.97;;
37203;SDS011;23098;48.054;10.636;2023-08-17T05:11:00;8.43;;;7.13;;
37203;SDS011;23098;48.054;10.636;2023-08-17T05:13:25;9.48;;;7.65;;
37203;SDS011;23098;48.054;10.636;2023-08-17T05:15:51;9.30;;;7.32;;
37203;SDS011;23098;48.054;10.636;2023-08-17T05:18:16;9.20;;;7.25;;
37203;SDS011;23098;48.054;10.636;2023-08-17T05:20:42;8.15;;;7.35;;
37203;SDS011;23098;48.054;10.636;2023-08-17T05:23:07;8.65;;;7.57;;
37203;SDS011;23098;48.054;10.636;2023-08-17T05:25:33;7.65;;;6.95;;
37203;SDS011;23098;48.054;10.636;2023-08-17T05:27:58;8.23;;;7.50;;
37203;SDS011;23098;48.054;10.636;2023-08-17T05:30:25;8.20;;;7.40;;
37203;SDS011;23098;48.054;10.636;2023-08-17T05:32:51;7.90;;;7.10;;
37203;SDS011;23098;48.054;10.636;2023-08-17T05:35:17;7.75;;;6.72;;
37203;SDS011;23098;48.054;10.636;2023-08-17T05:37:42;7.80;;;6.60;;
37203;SDS011;23098;48.054;10.636;2023-08-17T05:40:08;7.80;;;7.00;;
37203;SDS011;23098;48.054;10.636;2023-08-17T05:42:34;8.57;;;6.57;;
37203;SDS011;23098;48.054;10.636;2023-08-17T05:44:59;8.65;;;6.57;;
37203;SDS011;23098;48.054;10.636;2023-08-17T05:47:25;7.55;;;6.85;;
37203;SDS011;23098;48.054;10.636;2023-08-17T05:49:50;8.55;;;6.88;;
37203;SDS011;23098;48.054;10.636;2023-08-17T05:52:16;7.47;;;6.78;;
37203;SDS011;23098;48.054;10.636;2023-08-17T05:54:41;7.25;;;6.55;;
37203;SDS011;23098;48.054;10.636;2023-08-17T05:57:07;9.02;;;7.20;;
37203;SDS011;23098;48.054;10.636;2023-08-17T05:59:33;8.00;;;6.63;;
37203;SDS011;23098;48.054;10.636;2023-08-17T06:01:58;7.43;;;6.40;;
37203;SDS011;23098;48.054;10.636;2023-08-17T06:04:25;7.75;;;6.47;;
37203;SDS011;23098;48.054;10.636;2023-08-17T06:06:51;7.50;;;6.80;;
37203;SDS011;23098;48.054;10.636;2023-08-17T06:09:16;8.00;;;6.50;;
37203;SDS011;23098;48.054;10.636;2023-08-17T06:11:42;8.45;;;6.70;;
37203;SDS011;23098;48.054;10.636;2023-08-17T06:14:07;10.50;;;7.10;;
37203;SDS011;23098;48.054;10.636;2023-08-17T06:16:33;7.35;;;6.00;;
37203;SDS011;23098;48.054;10.636;2023-08-17T06:18:58;7.75;;;6.93;;
37203;SDS011;23098;48.054;10.636;2023-08-17T06:21:24;9.40;;;6.15;;
37203;SDS011;23098;48.054;10.636;2023-08-17T06:23:50;6.82;;;6.22;;
37203;SDS011;23098;48.054;10.636;2023-08-17T06:26:15;7.82;;;6.22;;
37203;SDS011;23098;48.054;10.636;2023-08-17T06:28:41;7.78;;;6.43;;
37203;SDS011;23098;48.054;10.636;2023-08-17T06:31:06;6.60;;;5.88;;
37203;SDS011;23098;48.054;10.636;2023-08-17T06:33:32;8.27;;;6.55;;
37203;SDS011;23098;48.054;10.636;2023-08-17T06:35:58;7.25;;;6.07;;
37203;SDS011;23098;48.054;10.636;2023-08-17T06:38:23;6.40;;;5.80;;
37203;SDS011;23098;48.054;10.636;2023-08-17T06:40:49;7.88;;;5.80;;
37203;SDS011;23098;48.054;10.636;2023-08-17T06:43:17;8.20;;;6.25;;
37203;SDS011;23098;48.054;10.636;2023-08-17T06:45:43;7.05;;;5.82;;
37203;SDS011;23098;48.054;10.636;2023-08-17T06:48:08;6.90;;;6.20;;
37203;SDS011;23098;48.054;10.636;2023-08-17T06:50:34;9.10;;;5.45;;
37203;SDS011;23098;48.054;10.636;2023-08-17T06:53:00;6.60;;;5.68;;
37203;SDS011;23098;48.054;10.636;2023-08-17T06:55:27;6.60;;;5.53;;
37203;SDS011;23098;48.054;10.636;2023-08-17T06:57:52;7.45;;;5.43;;
37203;SDS011;23098;48.054;10.636;2023-08-17T07:00:19;6.72;;;6.07;;
37203;SDS011;23098;48.054;10.636;2023-08-17T07:02:48;6.63;;;5.40;;
37203;SDS011;23098;48.054;10.636;2023-08-17T07:05:15;5.78;;;5.25;;
37203;SDS011;23098;48.054;10.636;2023-08-17T07:07:41;6.35;;;5.70;;
37203;SDS011;23098;48.054;10.636;2023-08-17T07:10:07;8.80;;;5.65;;
37203;SDS011;23098;48.054;10.636;2023-08-17T07:12:33;6.35;;;5.75;;
37203;SDS011;23098;48.054;10.636;2023-08-17T07:14:59;7.90;;;5.70;;
37203;SDS011;23098;48.054;10.636;2023-08-17T07:17:24;9.98;;;5.80;;
37203;SDS011;23098;48.054;10.636;2023-08-17T07:19:50;11.40;;;5.88;;
37203;SDS011;23098;48.054;10.636;2023-08-17T07:22:15;7.40;;;5.30;;
37203;SDS011;23098;48.054;10.636;2023-08-17T07:24:43;12.82;;;5.85;;
37203;SDS011;23098;48.054;10.636;2023-08-17T07:27:09;8.38;;;5.47;;
37203;SDS011;23098;48.054;10.636;2023-08-17T07:29:34;17.83;;;5.75;;
37203;SDS011;23098;48.054;10.636;2023-08-17T07:32:00;11.00;;;5.28;;
37203;SDS011;23098;48.054;10.636;2023-08-17T07:34:26;12.52;;;5.50;;
37203;SDS011;23098;48.054;10.636;2023-08-17T07:36:53;9.95;;;5.40;;
37203;SDS011;23098;48.054;10.636;2023-08-17T07:39:18;6.20;;;4.60;;
37203;SDS011;23098;48.054;10.636;2023-08-17T07:41:44;9.75;;;5.45;;
37203;SDS011;23098;48.054;10.636;2023-08-17T07:44:09;8.45;;;5.00;;
37203;SDS011;23098;48.054;10.636;2023-08-17T07:46:36;6.40;;;5.03;;
37203;SDS011;23098;48.054;10.636;2023-08-17T07:49:01;11.13;;;5.40;;
37203;SDS011;23098;48.054;10.636;2023-08-17T07:51:27;6.63;;;5.32;;
37203;SDS011;23098;48.054;10.636;2023-08-17T07:53:54;6.80;;;5.28;;
37203;SDS011;23098;48.054;10.636;2023-08-17T07:56:20;6.38;;;5.40;;
37203;SDS011;23098;48.054;10.636;2023-08-17T07:58:46;10.07;;;4.90;;
37203;SDS011;23098;48.054;10.636;2023-08-17T08:01:11;10.30;;;4.78;;
37203;SDS011;23098;48.054;10.636;2023-08-17T08:03:36;7.07;;;4.68;;
37203;SDS011;23098;48.054;10.636;2023-08-17T08:06:02;8.10;;;4.50;;
37203;SDS011;23098;48.054;10.636;2023-08-17T08:08:28;8.23;;;3.90;;
37203;SDS011;23098;48.054;10.636;2023-08-17T08:10:53;7.80;;;4.25;;
37203;SDS011;23098;48.054;10.636;2023-08-17T08:13:19;6.35;;;4.10;;
37203;SDS011;23098;48.054;10.636;2023-08-17T08:15:45;6.15;;;3.78;;
37203;SDS011;23098;48.054;10.636;2023-08-17T08:18:10;7.75;;;4.28;;
37203;SDS011;23098;48.054;10.636;2023-08-17T08:20:36;13.70;;;4.03;;
37203;SDS011;23098;48.054;10.636;2023-08-17T08:23:02;5.25;;;3.60;;
37203;SDS011;23098;48.054;10.636;2023-08-17T08:25:28;8.88;;;3.53;;
37203;SDS011;23098;48.054;10.636;2023-08-17T08:27:54;6.75;;;3.72;;
37203;SDS011;23098;48.054;10.636;2023-08-17T08:30:19;8.10;;;3.85;;
37203;SDS011;23098;48.054;10.636;2023-08-17T08:32:45;5.03;;;3.45;;
37203;SDS011;23098;48.054;10.636;2023-08-17T08:35:10;7.28;;;3.80;;
37203;SDS011;23098;48.054;10.636;2023-08-17T08:37:36;5.28;;;3.88;;
37203;SDS011;23098;48.054;10.636;2023-08-17T08:40:01;6.55;;;4.00;;
37203;SDS011;23098;48.054;10.636;2023-08-17T08:42:27;4.32;;;3.60;;
37203;SDS011;23098;48.054;10.636;2023-08-17T08:44:53;3.92;;;3.47;;
37203;SDS011;23098;48.054;10.636;2023-08-17T08:47:19;5.80;;;3.63;;
37203;SDS011;23098;48.054;10.636;2023-08-17T08:52:25;3.90;;;2.70;;
37203;SDS011;23098;48.054;10.636;2023-08-17T08:54:59;4.45;;;2.85;;
37203;SDS011;23098;48.054;10.636;2023-08-17T08:57:41;6.35;;;3.25;;
37203;SDS011;23098;48.054;10.636;2023-08-17T09:00:07;4.78;;;3.08;;
37203;SDS011;23098;48.054;10.636;2023-08-17T09:02:34;5.13;;;2.78;;
37203;SDS011;23098;48.054;10.636;2023-08-17T09:05:01;3.70;;;3.00;;
37203;SDS011;23098;48.054;10.636;2023-08-17T09:07:31;6.45;;;3.22;;
37203;SDS011;23098;48.054;10.636;2023-08-17T09:09:58;4.47;;;2.85;;
37203;SDS011;23098;48.054;10.636;2023-08-17T09:12:24;7.65;;;3.65;;
37203;SDS011;23098;48.054;10.636;2023-08-17T09:14:50;7.35;;;3.30;;
37203;SDS011;23098;48.054;10.636;2023-08-17T09:17:34;5.75;;;3.50;;
37203;SDS011;23098;48.054;10.636;2023-08-17T09:19:59;5.70;;;3.25;;
37203;SDS011;23098;48.054;10.636;2023-08-17T09:22:25;6.10;;;3.08;;
37203;SDS011;23098;48.054;10.636;2023-08-17T09:27:49;4.43;;;3.10;;
37203;SDS011;23098;48.054;10.636;2023-08-17T09:30:14;6.68;;;3.33;;
37203;SDS011;23098;48.054;10.636;2023-08-17T09:32:48;6.07;;;3.08;;
37203;SDS011;23098;48.054;10.636;2023-08-17T09:35:14;5.82;;;3.13;;
37203;SDS011;23098;48.054;10.636;2023-08-17T09:37:54;5.72;;;2.95;;
37203;SDS011;23098;48.054;10.636;2023-08-17T09:40:20;7.63;;;2.97;;
37203;SDS011;23098;48.054;10.636;2023-08-17T09:42:45;3.20;;;2.90;;
37203;SDS011;23098;48.054;10.636;2023-08-17T09:45:11;6.53;;;3.22;;
37203;SDS011;23098;48.054;10.636;2023-08-17T09:47:36;9.05;;;3.20;;
37203;SDS011;23098;48.054;10.636;2023-08-17T09:50:03;5.75;;;2.60;;
37203;SDS011;23098;48.054;10.636;2023-08-17T09:52:31;3.80;;;2.60;;
37203;SDS011;23098;48.054;10.636;2023-08-17T09:54:56;3.92;;;2.58;;
37203;SDS011;23098;48.054;10.636;2023-08-17T09:57:27;6.45;;;2.78;;
37203;SDS011;23098;48.054;10.636;2023-08-17T09:59:53;4.20;;;2.35;;
37203;SDS011;23098;48.054;10.636;2023-08-17T10:02:20;5.93;;;2.55;;
37203;SDS011;23098;48.054;10.636;2023-08-17T10:07:31;3.20;;;2.47;;
37203;SDS011;23098;48.054;10.636;2023-08-17T10:10:02;4.55;;;2.72;;
37203;SDS011;23098;48.054;10.636;2023-08-17T10:12:30;5.60;;;2.72;;
37203;SDS011;23098;48.054;10.636;2023-08-17T10:15:20;4.30;;;2.65;;
37203;SDS011;23098;48.054;10.636;2023-08-17T10:17:54;5.43;;;2.70;;
37203;SDS011;23098;48.054;10.636;2023-08-17T10:20:25;9.68;;;2.70;;
37203;SDS011;23098;48.054;10.636;2023-08-17T10:22:56;4.80;;;2.70;;
37203;SDS011;23098;48.054;10.636;2023-08-17T10:25:32;5.38;;;2.67;;
37203;SDS011;23098;48.054;10.636;2023-08-17T10:27:59;5.10;;;2.85;;
37203;SDS011;23098;48.054;10.636;2023-08-17T10:30:28;3.17;;;2.50;;
37203;SDS011;23098;48.054;10.636;2023-08-17T10:35:49;4.30;;;2.58;;
37203;SDS011;23098;48.054;10.636;2023-08-17T10:38:15;6.13;;;3.00;;
37203;SDS011;23098;48.054;10.636;2023-08-17T10:40:42;5.10;;;2.55;;
37203;SDS011;23098;48.054;10.636;2023-08-17T10:43:08;3.22;;;2.65;;
37203;SDS011;23098;48.054;10.636;2023-08-17T10:45:34;4.07;;;2.58;;
37203;SDS011;23098;48.054;10.636;2023-08-17T10:50:35;4.28;;;2.40;;
37203;SDS011;23098;48.054;10.636;2023-08-17T10:53:09;3.28;;;2.60;;
37203;SDS011;23098;48.054;10.636;2023-08-17T10:55:36;2.95;;;2.67;;
37203;SDS011;23098;48.054;10.636;2023-08-17T10:58:03;5.95;;;2.50;;
37203;SDS011;23098;48.054;10.636;2023-08-17T11:00:35;3.88;;;2.53;;
37203;SDS011;23098;48.054;10.636;2023-08-17T11:03:03;3.88;;;2.20;;
37203;SDS011;23098;48.054;10.636;2023-08-17T11:05:57;3.42;;;2.40;;
37203;SDS011;23098;48.054;10.636;2023-08-17T11:08:23;4.25;;;2.20;;
37203;SDS011;23098;48.054;10.636;2023-08-17T11:11:03;5.70;;;2.33;;
37203;SDS011;23098;48.054;10.636;2023-08-17T11:13:35;3.88;;;2.60;;
37203;SDS011;23098;48.054;10.636;2023-08-17T11:16:03;4.22;;;2.40;;
37203;SDS011;23098;48.054;10.636;2023-08-17T11:18:30;4.03;;;2.90;;
37203;SDS011;23098;48.054;10.636;2023-08-17T11:20:56;3.75;;;2.70;;
37203;SDS011;23098;48.054;10.636;2023-08-17T11:23:23;3.67;;;2.40;;
37203;SDS011;23098;48.054;10.636;2023-08-17T11:25:49;5.57;;;2.40;;
37203;SDS011;23098;48.054;10.636;2023-08-17T11:28:17;4.75;;;2.67;;
37203;SDS011;23098;48.054;10.636;2023-08-17T11:30:43;4.25;;;2.65;;
37203;SDS011;23098;48.054;10.636;2023-08-17T11:33:09;4.40;;;2.72;;
37203;SDS011;23098;48.054;10.636;2023-08-17T11:35:38;5.55;;;2.97;;
37203;SDS011;23098;48.054;10.636;2023-08-17T11:38:04;5.30;;;2.72;;
37203;SDS011;23098;48.054;10.636;2023-08-17T11:40:31;2.92;;;2.40;;
37203;SDS011;23098;48.054;10.636;2023-08-17T11:42:57;5.78;;;2.60;;
37203;SDS011;23098;48.054;10.636;2023-08-17T11:45:23;3.80;;;2.30;;
37203;SDS011;23098;48.054;10.636;2023-08-17T11:47:49;5.40;;;2.65;;
37203;SDS011;23098;48.054;10.636;2023-08-17T11:50:14;5.80;;;2.58;;
37203;SDS011;23098;48.054;10.636;2023-08-17T11:52:40;3.08;;;2.55;;
37203;SDS011;23098;48.054;10.636;2023-08-17T11:55:06;5.20;;;2.40;;
37203;SDS011;23098;48.054;10.636;2023-08-17T11:57:36;3.78;;;2.33;;
37203;SDS011;23098;48.054;10.636;2023-08-17T12:00:03;3.42;;;2.42;;
37203;SDS011;23098;48.054;10.636;2023-08-17T12:02:31;4.80;;;2.20;;
37203;SDS011;23098;48.054;10.636;2023-08-17T12:04:57;5.25;;;2.67;;
37203;SDS011;23098;48.054;10.636;2023-08-17T12:07:25;3.03;;;2.70;;
37203;SDS011;23098;48.054;10.636;2023-08-17T12:09:52;5.15;;;2.80;;
37203;SDS011;23098;48.054;10.636;2023-08-17T12:12:18;4.75;;;2.80;;
37203;SDS011;23098;48.054;10.636;2023-08-17T12:14:46;4.38;;;2.80;;
37203;SDS011;23098;48.054;10.636;2023-08-17T12:17:16;2.72;;;2.53;;
37203;SDS011;23098;48.054;10.636;2023-08-17T12:19:43;3.38;;;3.00;;
37203;SDS011;23098;48.054;10.636;2023-08-17T12:22:09;4.95;;;2.88;;
37203;SDS011;23098;48.054;10.636;2023-08-17T12:24:37;4.15;;;2.90;;
37203;SDS011;23098;48.054;10.636;2023-08-17T12:27:03;3.95;;;2.97;;
37203;SDS011;23098;48.054;10.636;2023-08-17T12:29:31;4.57;;;2.92;;
37203;SDS011;23098;48.054;10.636;2023-08-17T12:31:57;4.32;;;3.00;;
37203;SDS011;23098;48.054;10.636;2023-08-17T12:34:23;4.05;;;2.60;;
37203;SDS011;23098;48.054;10.636;2023-08-17T12:36:49;5.03;;;3.00;;
37203;SDS011;23098;48.054;10.636;2023-08-17T12:39:15;4.60;;;3.15;;
37203;SDS011;23098;48.054;10.636;2023-08-17T12:41:41;4.43;;;2.88;;
37203;SDS011;23098;48.054;10.636;2023-08-17T12:44:08;5.88;;;3.08;;
37203;SDS011;23098;48.054;10.636;2023-08-17T12:46:34;4.82;;;2.90;;
37203;SDS011;23098;48.054;10.636;2023-08-17T12:49:00;4.97;;;2.65;;
37203;SDS011;23098;48.054;10.636;2023-08-17T12:51:25;3.97;;;2.60;;
37203;SDS011;23098;48.054;10.636;2023-08-17T12:53:51;4.30;;;2.80;;
37203;SDS011;23098;48.054;10.636;2023-08-17T12:56:18;5.63;;;2.58;;
37203;SDS011;23098;48.054;10.636;2023-08-17T12:58:44;5.28;;;2.55;;
37203;SDS011;23098;48.054;10.636;2023-08-17T13:01:09;4.00;;;2.33;;
37203;SDS011;23098;48.054;10.636;2023-08-17T13:03:35;2.85;;;2.38;;
37203;SDS011;23098;48.054;10.636;2023-08-17T13:06:00;3.20;;;2.38;;
37203;SDS011;23098;48.054;10.636;2023-08-17T13:08:26;3.83;;;2.55;;
37203;SDS011;23098;48.054;10.636;2023-08-17T13:13:31;18.05;;;3.03;;
37203;SDS011;23098;48.054;10.636;2023-08-17T13:18:54;5.20;;;2.67;;
37203;SDS011;23098;48.054;10.636;2023-08-17T13:21:19;3.40;;;2.50;;
37203;SDS011;23098;48.054;10.636;2023-08-17T13:23:45;4.70;;;2.90;;
37203;SDS011;23098;48.054;10.636;2023-08-17T13:26:10;6.93;;;2.78;;
37203;SDS011;23098;48.054;10.636;2023-08-17T13:28:36;2.72;;;2.50;;
37203;SDS011;23098;48.054;10.636;2023-08-17T13:31:02;3.80;;;2.72;;
37203;SDS011;23098;48.054;10.636;2023-08-17T13:33:27;4.03;;;2.97;;
37203;SDS011;23098;48.054;10.636;2023-08-17T13:35:53;4.20;;;2.80;;
37203;SDS011;23098;48.054;10.636;2023-08-17T13:38:19;5.72;;;2.70;;
37203;SDS011;23098;48.054;10.636;2023-08-17T13:40:45;3.83;;;3.00;;
37203;SDS011;23098;48.054;10.636;2023-08-17T13:43:10;3.63;;;2.80;;
37203;SDS011;23098;48.054;10.636;2023-08-17T13:45:39;5.25;;;2.65;;
37203;SDS011;23098;48.054;10.636;2023-08-17T13:48:05;4.45;;;2.85;;
37203;SDS011;23098;48.054;10.636;2023-08-17T13:50:32;3.60;;;2.60;;
37203;SDS011;23098;48.054;10.636;2023-08-17T13:52:57;6.07;;;2.85;;
37203;SDS011;23098;48.054;10.636;2023-08-17T13:55:25;3.35;;;2.50;;
37203;SDS011;23098;48.054;10.636;2023-08-17T13:57:51;3.97;;;2.33;;
37203;SDS011;23098;48.054;10.636;2023-08-17T14:00:18;3.55;;;2.40;;
37203;SDS011;23098;48.054;10.636;2023-08-17T14:02:43;4.25;;;2.25;;
37203;SDS011;23098;48.054;10.636;2023-08-17T14:05:09;3.10;;;2.30;;
37203;SDS011;23098;48.054;10.636;2023-08-17T14:07:34;2.50;;;2.30;;
37203;SDS011;23098;48.054;10.636;2023-08-17T14:10:00;2.92;;;2.50;;
37203;SDS011;23098;48.054;10.636;2023-08-17T14:12:25;3.47;;;2.20;;
37203;SDS011;23098;48.054;10.636;2023-08-17T14:14:51;3.00;;;2.50;;
37203;SDS011;23098;48.054;10.636;2023-08-17T14:17:16;2.30;;;2.10;;
37203;SDS011;23098;48.054;10.636;2023-08-17T14:19:42;6.10;;;2.50;;
37203;SDS011;23098;48.054;10.636;2023-08-17T14:22:08;3.35;;;2.20;;
37203;SDS011;23098;48.054;10.636;2023-08-17T14:24:33;8.55;;;2.75;;
37203;SDS011;23098;48.054;10.636;2023-08-17T14:26:59;5.43;;;2.95;;
37203;SDS011;23098;48.054;10.636;2023-08-17T14:29:24;5.50;;;3.00;;
37203;SDS011;23098;48.054;10.636;2023-08-17T14:31:50;5.72;;;3.03;;
37203;SDS011;23098;48.054;10.636;2023-08-17T14:34:15;4.88;;;3.20;;
37203;SDS011;23098;48.054;10.636;2023-08-17T14:36:41;6.13;;;3.38;;
37203;SDS011;23098;48.054;10.636;2023-08-17T14:39:06;6.93;;;3.58;;
37203;SDS011;23098;48.054;10.636;2023-08-17T14:41:32;6.50;;;3.38;;
37203;SDS011;23098;48.054;10.636;2023-08-17T14:44:00;8.00;;;3.47;;
37203;SDS011;23098;48.054;10.636;2023-08-17T14:46:26;8.18;;;3.47;;